x

South Santa Rosa Is. Ca (46069) Wave Buoy

9:50am - Fri 30th Sep 2016 All times are PDT. -7 hours from GMT.

  • Sig Wave height 6.9ft
  • Swell Direction
  • Peak Period 15s
  • Average Period 7s
  • Wind
    18mph, 22mph gusts
  • Sea Temp 65°f
  • Air Temp 61°f
  • Sea Pressure 1017.9mb
  • South Santa Rosa Is. Ca
  • South Santa Rosa Is. Ca

More Historic Weather Station data

Upgrade to MSW Pro to gain access to the past 30 days of data for over 8000 Wavebouys and Weather Stations around the globe.

Join Pro

Comparision Forecast

View Surf forecast
   
Fri 09/30 9:50am 7ft 15s 7s 18 22 mph 1017.9mb 65f 61f
8:50am 6.5ft 15s 6s 18 22 mph 1017.4mb 65f 61f
7:50am 6ft 15s 6s 20 22 mph 1017.2mb 66f 61f
6:50am 6ft 16s 6s 18 22 mph 1017mb 66f 61f
5:50am 5.5ft 16s 7s 18 22 mph 1016.8mb 66f 62f
4:50am 5ft 16s 6s 18 22 mph 1016.6mb 66f 62f
3:50am 5.5ft 16s 7s 18 22 mph 1016.6mb 66f 62f
2:50am 5ft 16s 7s 18 20 mph 1016.6mb 66f 62f
1:50am 5ft 16s 6s 18 20 mph 1016.7mb 66f 62f
12:50am 5ft 16s 6s 13 18 mph 1017mb 66f 62f
Thu 09/29 11:50pm 5.5ft 9s 7s 16 18 mph 1017.1mb 66f 62f
10:50pm 5.5ft 16s 6s 16 18 mph 1017mb 66f 62f
9:50pm 5.5ft 16s 6s 18 22 mph 1016.9mb 66f 62f
8:50pm 5.5ft 16s 6s 18 20 mph 1016.7mb 66f 63f
7:50pm 5ft 16s 7s 18 20 mph 1016mb 67f 63f
6:50pm 5ft 16s 7s 18 20 mph 1016.2mb 67f 63f
5:50pm 4.5ft 16s 7s 16 18 mph 1016.2mb 67f 63f
4:50pm 4.5ft 10s 7s 16 18 mph 1016.2mb 67f 64f
3:50pm 4.5ft 16s 8s 16 18 mph 1016.6mb 67f 63f
2:50pm 4.5ft 9s 8s 13 18 mph 1016.9mb 67f 63f
1:50pm 4.5ft 10s 7s 13 16 mph 1017.4mb 67f 63f
12:50pm 4.5ft 10s 8s 11 13 mph 1017.9mb 67f 62f
11:50am 5ft 10s 7s 11 13 mph 1018.1mb 66f 62f
10:50am 4.5ft 9s 7s 11 16 mph 1018mb 66f 61f
9:50am 4.5ft 10s 8s 11 13 mph 1017.7mb 65f 62f
8:50am 5ft 9s 8s 11 13 mph 1017.1mb 65f 62f
7:50am 4.5ft 10s 7s 11 13 mph 1016.5mb 66f 62f
6:50am 4.5ft 9s 7s 11 13 mph 1015.8mb 66f 63f
5:50am 4.5ft 9s 7s 11 13 mph 1015.1mb 66f 62f
4:50am 4.5ft 9s 7s 11
mph
1014.8mb 66f 62f
3:50am 4.5ft 9s 7s 9 11 mph 1014.5mb 66f 62f
2:50am 4.5ft 9s 7s 13 16 mph 1014.4mb 66f 62f
1:50am 4.5ft 10s 7s 16 18 mph 1014.2mb 66f 62f
12:50am 4.5ft 10s 7s 13 16 mph 1014.4mb 66f 63f
Wed 09/28 11:50pm 4.5ft 14s 7s 11 13 mph 1014.3mb 67f 63f
10:50pm 4.5ft 14s 7s 11 13 mph 1014.4mb 67f 64f
9:50pm 4.5ft 10s 7s 11 13 mph 1014.3mb 67f 64f
8:50pm 4ft 14s 7s 9 11 mph 1014.4mb 67f 64f
7:50pm 4.5ft 9s 7s 11
mph
1013.6mb 67f 64f
6:50pm 4ft 9s 8s 11
mph
1012.9mb 67f 64f
5:50pm 4ft 8s 8s 9
mph
1012.9mb 66f 65f
4:50pm 4.5ft 9s 8s 11 13 mph 1012.6mb 67f 62f
3:50pm 4ft 15s 8s 11
mph
1012.8mb 68f 63f
2:50pm 5ft 9s 8s 9
mph
1012.8mb 68f 66f
1:50pm 4.5ft 9s 8s 4 7 mph 1013.1mb 67f 66f
12:50pm 5ft 10s 8s 4 7 mph 1013.3mb 67f 66f
11:50am 4.5ft 9s 7s 4 7 mph 1013.6mb 66f 65f
10:50am 4.5ft 10s 7s 7 9 mph 1013.7mb 66f 64f
9:50am 4.5ft 10s 7s 9 11 mph 1013.4mb 65f 64f
8:50am 5ft 11s 7s 9 11 mph 1013.1mb 65f 64f
7:50am 4.5ft 11s 8s 4 7 mph 1012.6mb 65f 65f
6:50am 4.5ft 11s 8s 9 11 mph 1012mb 65f 65f
5:50am 4.5ft 15s 8s 7
mph
1011.7mb 65f 65f
4:50am 4ft 10s 8s 4
mph
1011.4mb 65f 65f
3:50am 4.5ft 10s 9s 4 7 mph 1011.4mb 65f 66f
2:50am 4ft 11s 8s 2
mph
1011.6mb 66f 67f
1:50am 4.5ft 11s 8s 2
mph
1011.6mb 66f 68f
12:50am 4ft 11s 8s 2
mph
1011.6mb 66f 66f
Tue 09/27 11:50pm 3.5ft 11s 8s 4
mph
1011.5mb 66f 66f
10:50pm 4ft 15s 8s 4
mph
1011.4mb 66f 68f
9:50pm 4ft 15s 8s 2 4 mph 1011.3mb 65f 68f
8:50pm 4ft 15s 8s 4 7 mph 1010.8mb 65f 69f
7:50pm 3.5ft 15s 8s  -  2 mph 1010.4mb 66f 69f
6:50pm 3.5ft 10s 8s 2 7 mph 1009.9mb 67f 69f
5:50pm 3.5ft 15s 8s 7
mph
1009.8mb 66f 70f
4:50pm 3.5ft 9s 9s 9
mph
1009.8mb 66f 71f
3:50pm 3.5ft 9s 8s 7
mph
1010mb 67f 70f
2:50pm 3.5ft 15s 9s 4 7 mph 1010mb 67f 72f
1:50pm 3.5ft 14s 9s 2 4 mph 1010.2mb 67f 72f
12:50pm 4ft 15s 9s 4
mph
1010.1mb 67f 72f
11:50am 3.5ft 10s 8s 2
mph
1010.7mb 65f 71f
10:50am 4ft 14s 8s 2
mph
1010.8mb 65f 69f
9:50am 4ft 15s 8s 7 11 mph 1010.9mb 64f 70f
8:50am 4ft 10s 7s 4 7 mph 1010.2mb 64f 69f
7:50am 3.5ft 14s 7s 7
mph
1010.1mb 63f 69f
6:50am 4ft 14s 8s 9 11 mph 1009.5mb 63f 68f
5:50am 3.5ft 15s 8s 11 13 mph 1009.3mb 63f 67f
4:50am 4.5ft 15s 9s 9 11 mph 1009.7mb 63f 67f
3:50am 4.5ft 15s 9s 2 4 mph 1010mb 64f 66f
2:50am 4ft 15s 8s 9 11 mph 1010.3mb 64f 67f
1:50am 3.5ft 15s 8s 11 13 mph 1010.6mb 64f 68f
12:50am 3.5ft 14s 8s 11
mph
1011mb 64f 68f
Mon 09/26 11:50pm 3.5ft 15s 7s 9
mph
1011.4mb 64f 68f
10:50pm 4ft 16s 8s 9
mph
1011.6mb 63f 69f
9:50pm 4.5ft 15s 8s 11 13 mph 1011.5mb 64f 68f
8:50pm 4ft 15s 7s 11 13 mph 1011.7mb 63f 68f
7:50pm 4.5ft 15s 8s 11 13 mph 1011.2mb 63f 68f
6:50pm 4ft 9s 8s 11 13 mph 1011mb 64f 68f